createdAt,value
2018-09-09T00:01:47.999Z,12.80
2018-09-09T00:04:16.821Z,12.70
2018-09-09T00:06:45.431Z,12.60
2018-09-09T00:09:19.030Z,12.60
2018-09-09T00:11:47.817Z,12.50
2018-09-09T00:14:16.441Z,12.40
2018-09-09T00:16:45.185Z,12.40
2018-09-09T00:19:14.102Z,12.40
2018-09-09T00:21:42.984Z,12.30
2018-09-09T00:24:11.543Z,12.30
2018-09-09T00:26:40.314Z,12.40
2018-09-09T00:29:10.120Z,12.40
2018-09-09T00:31:38.783Z,12.40
2018-09-09T00:34:07.545Z,12.50
2018-09-09T00:36:36.070Z,12.50
2018-09-09T00:39:06.001Z,12.30
2018-09-09T00:41:34.818Z,12.30
2018-09-09T00:44:03.409Z,12.40
2018-09-09T00:46:32.250Z,12.50
2018-09-09T00:49:06.052Z,12.40
2018-09-09T00:51:40.288Z,12.20
2018-09-09T00:54:08.844Z,12.20
2018-09-09T00:56:37.402Z,12.30
2018-09-09T00:59:06.075Z,12.40
2018-09-09T01:01:34.853Z,12.50
2018-09-09T01:04:03.383Z,12.50
2018-09-09T01:06:32.028Z,12.40
2018-09-09T01:09:00.604Z,12.50
2018-09-09T01:11:29.256Z,12.50
2018-09-09T01:13:57.924Z,12.40
2018-09-09T01:16:26.632Z,12.40
2018-09-09T01:18:55.560Z,12.40
2018-09-09T01:21:24.069Z,12.40
2018-09-09T01:23:52.867Z,12.40
2018-09-09T01:26:21.411Z,12.50
2018-09-09T01:28:50.268Z,12.50
2018-09-09T01:31:18.959Z,12.50
2018-09-09T01:33:47.562Z,12.40
2018-09-09T01:36:16.352Z,9.70
2018-09-09T01:38:45.070Z,12.30
2018-09-09T01:41:13.850Z,12.30
2018-09-09T01:43:42.364Z,12.30
2018-09-09T01:46:11.088Z,12.40
2018-09-09T01:48:39.889Z,12.40
2018-09-09T01:51:08.510Z,12.30
2018-09-09T01:53:37.179Z,12.30
2018-09-09T01:56:05.882Z,12.20
2018-09-09T01:58:34.692Z,12.20
2018-09-09T02:01:03.386Z,12.20
2018-09-09T02:03:32.135Z,12.20
2018-09-09T02:06:01.169Z,12.10
2018-09-09T02:08:29.738Z,12.00
2018-09-09T02:11:00.000Z,11.90
2018-09-09T02:13:30.088Z,12.00
2018-09-09T02:15:59.034Z,12.00
2018-09-09T02:18:28.098Z,12.00
2018-09-09T02:20:56.750Z,12.10
2018-09-09T02:23:25.677Z,12.10
2018-09-09T02:25:54.611Z,11.90
2018-09-09T02:28:23.235Z,11.80
2018-09-09T02:30:51.983Z,11.80
2018-09-09T02:33:20.738Z,11.80
2018-09-09T02:35:49.319Z,11.90
2018-09-09T02:38:18.132Z,11.90
2018-09-09T02:40:47.035Z,11.80
2018-09-09T02:43:15.745Z,11.80
2018-09-09T02:45:44.834Z,11.70
2018-09-09T02:48:13.502Z,11.80
2018-09-09T02:50:42.139Z,11.70
2018-09-09T02:53:11.073Z,11.80
2018-09-09T02:55:45.342Z,11.90
2018-09-09T02:58:15.805Z,11.90
2018-09-09T03:00:44.783Z,11.90
2018-09-09T03:03:13.367Z,11.80
2018-09-09T03:05:42.529Z,11.70
2018-09-09T03:08:11.311Z,11.70
2018-09-09T03:10:40.528Z,11.70
2018-09-09T03:13:09.304Z,11.60
2018-09-09T03:15:37.868Z,11.60
2018-09-09T03:18:06.689Z,11.60
2018-09-09T03:20:35.225Z,11.70
2018-09-09T03:23:03.793Z,11.80
2018-09-09T03:25:32.424Z,11.80
2018-09-09T03:28:01.174Z,11.80
2018-09-09T03:30:30.101Z,11.80
2018-09-09T03:32:58.698Z,11.80
2018-09-09T03:35:27.492Z,11.70
2018-09-09T03:37:56.232Z,11.50
2018-09-09T03:40:24.779Z,11.50
2018-09-09T03:42:53.321Z,11.50
2018-09-09T03:45:21.852Z,11.50
2018-09-09T03:47:50.636Z,11.50
2018-09-09T03:50:19.271Z,11.60
2018-09-09T03:52:48.074Z,11.70
2018-09-09T03:55:16.647Z,11.70
2018-09-09T03:57:45.466Z,11.80
2018-09-09T04:00:14.167Z,11.80
2018-09-09T04:02:42.916Z,11.70
2018-09-09T04:05:11.474Z,11.50
2018-09-09T04:07:40.018Z,11.50
2018-09-09T04:10:08.638Z,11.60
2018-09-09T04:12:37.511Z,11.70
2018-09-09T04:15:06.454Z,11.60
2018-09-09T04:17:35.003Z,11.50
2018-09-09T04:20:03.525Z,11.50
2018-09-09T04:22:32.063Z,11.40
2018-09-09T04:25:00.650Z,11.60
2018-09-09T04:27:29.363Z,11.60
2018-09-09T04:29:58.349Z,11.60
2018-09-09T04:32:27.251Z,11.50
2018-09-09T04:34:55.875Z,11.60
2018-09-09T04:37:24.810Z,11.50
2018-09-09T04:39:53.453Z,11.60
2018-09-09T04:42:22.074Z,11.50
2018-09-09T04:44:50.954Z,11.50
2018-09-09T04:47:19.738Z,11.40
2018-09-09T04:49:48.283Z,11.40
2018-09-09T04:52:17.313Z,11.40
2018-09-09T04:54:46.151Z,11.40
2018-09-09T04:57:14.724Z,11.50
2018-09-09T04:59:43.603Z,11.50
2018-09-09T05:02:12.167Z,11.70
2018-09-09T05:04:40.721Z,11.70
2018-09-09T05:07:09.697Z,11.70
2018-09-09T05:09:38.206Z,11.80
2018-09-09T05:12:07.090Z,11.80
2018-09-09T05:14:35.929Z,11.70
2018-09-09T05:17:04.520Z,11.80
2018-09-09T05:19:33.257Z,11.80
2018-09-09T05:22:01.955Z,11.80
2018-09-09T05:24:30.613Z,11.80
2018-09-09T05:26:59.300Z,11.70
2018-09-09T05:29:27.990Z,11.80
2018-09-09T05:31:56.755Z,11.80
2018-09-09T05:34:25.476Z,11.80
2018-09-09T05:36:54.161Z,11.70
2018-09-09T05:39:22.790Z,11.70
2018-09-09T05:41:51.917Z,11.80
2018-09-09T05:44:20.454Z,11.80
2018-09-09T05:46:49.028Z,12.00
2018-09-09T05:49:17.608Z,12.00
2018-09-09T05:51:46.148Z,12.00
2018-09-09T05:54:14.685Z,12.20
2018-09-09T05:56:43.472Z,12.30
2018-09-09T05:59:12.554Z,12.40
2018-09-09T06:01:41.227Z,12.50
2018-09-09T06:04:09.927Z,12.60
2018-09-09T06:06:38.665Z,12.60
2018-09-09T06:09:09.593Z,12.60
2018-09-09T06:11:38.177Z,12.50
2018-09-09T06:14:07.172Z,12.50
2018-09-09T06:16:36.240Z,12.60
2018-09-09T06:19:05.114Z,12.60
2018-09-09T06:21:34.228Z,12.80
2018-09-09T06:24:03.022Z,12.90
2018-09-09T06:26:31.689Z,12.70
2018-09-09T06:29:00.471Z,12.90
2018-09-09T06:31:29.156Z,13.10
2018-09-09T06:33:57.788Z,13.10
2018-09-09T06:36:26.485Z,13.20
2018-09-09T06:38:55.270Z,13.20
2018-09-09T06:41:24.219Z,13.20
2018-09-09T06:43:52.888Z,13.30
2018-09-09T06:46:21.575Z,13.40
2018-09-09T06:48:50.322Z,13.50
2018-09-09T06:51:18.978Z,13.50
2018-09-09T06:53:47.574Z,13.60
2018-09-09T06:56:16.291Z,13.70
2018-09-09T06:58:45.035Z,13.80
2018-09-09T07:01:13.753Z,14.00
2018-09-09T07:03:43.023Z,14.00
2018-09-09T07:06:11.644Z,14.20
2018-09-09T07:08:40.460Z,14.40
2018-09-09T07:11:09.549Z,14.40
2018-09-09T07:13:38.130Z,14.30
2018-09-09T07:16:06.682Z,14.50
2018-09-09T07:18:35.320Z,14.70
2018-09-09T07:21:04.094Z,14.70
2018-09-09T07:23:33.014Z,15.00
2018-09-09T07:26:01.895Z,15.00
2018-09-09T07:28:30.865Z,15.10
2018-09-09T07:30:59.585Z,15.30
2018-09-09T07:33:28.307Z,15.40
2018-09-09T07:35:57.223Z,15.60
2018-09-09T07:38:26.188Z,15.70
2018-09-09T07:40:55.342Z,15.80
2018-09-09T07:43:24.365Z,15.80
2018-09-09T07:45:53.429Z,16.00
2018-09-09T07:48:22.159Z,16.10
2018-09-09T07:50:51.380Z,16.00
2018-09-09T07:53:20.086Z,15.70
2018-09-09T07:55:48.796Z,15.80
2018-09-09T07:58:17.490Z,15.90
2018-09-09T08:00:46.222Z,16.10
2018-09-09T08:03:15.088Z,16.20
2018-09-09T08:05:43.855Z,16.40
2018-09-09T08:08:12.791Z,16.50
2018-09-09T08:10:41.577Z,16.60
2018-09-09T08:13:10.362Z,16.70
2018-09-09T08:15:39.425Z,16.80
2018-09-09T08:18:08.127Z,16.80
2018-09-09T08:20:36.906Z,16.80
2018-09-09T08:23:05.851Z,16.80
2018-09-09T08:25:34.435Z,16.90
2018-09-09T08:28:03.682Z,17.00
2018-09-09T08:30:32.508Z,17.20
2018-09-09T08:33:01.307Z,17.00
2018-09-09T08:35:30.110Z,17.10
2018-09-09T08:37:58.709Z,17.30
2018-09-09T08:40:27.477Z,17.50
2018-09-09T08:42:56.489Z,17.60
2018-09-09T08:45:25.898Z,17.80
2018-09-09T08:47:55.082Z,18.00
2018-09-09T08:50:24.380Z,17.90
2018-09-09T08:52:53.270Z,18.20
2018-09-09T08:55:22.355Z,18.30
2018-09-09T08:57:51.407Z,18.40
2018-09-09T09:00:20.621Z,18.60
2018-09-09T09:02:49.501Z,18.20
2018-09-09T09:05:18.686Z,18.20
2018-09-09T09:07:47.740Z,18.20
2018-09-09T09:10:16.373Z,18.70
2018-09-09T09:12:45.396Z,19.10
2018-09-09T09:15:14.195Z,19.40
2018-09-09T09:17:42.938Z,19.60
2018-09-09T09:20:11.840Z,19.60
2018-09-09T09:22:40.821Z,19.80
2018-09-09T09:25:09.610Z,20.00
2018-09-09T09:27:38.480Z,20.10
2018-09-09T09:30:07.417Z,20.40
2018-09-09T09:32:35.980Z,20.70
2018-09-09T09:35:05.112Z,21.20
2018-09-09T09:37:33.979Z,21.10
2018-09-09T09:40:02.897Z,21.50
2018-09-09T09:42:31.623Z,21.90
2018-09-09T09:45:00.523Z,22.20
2018-09-09T09:47:29.261Z,22.80
2018-09-09T09:49:58.454Z,23.20
2018-09-09T09:52:27.400Z,23.70
2018-09-09T09:54:56.247Z,24.10
2018-09-09T09:57:25.003Z,24.10
2018-09-09T09:59:53.622Z,24.50
2018-09-09T10:02:22.509Z,23.90
2018-09-09T10:04:51.195Z,23.80
2018-09-09T10:07:20.006Z,24.00
2018-09-09T10:09:49.011Z,24.30
2018-09-09T10:12:17.762Z,24.50
2018-09-09T10:14:46.371Z,24.70
2018-09-09T10:17:15.324Z,25.40
2018-09-09T10:19:44.267Z,25.30
2018-09-09T10:22:13.429Z,25.10
2018-09-09T10:24:42.333Z,25.50
2018-09-09T10:27:11.183Z,25.90
2018-09-09T10:29:39.955Z,25.80
2018-09-09T10:32:08.933Z,26.10
2018-09-09T10:34:38.254Z,25.80
2018-09-09T10:37:07.336Z,25.50
2018-09-09T10:39:36.319Z,25.50
2018-09-09T10:42:04.949Z,25.30
2018-09-09T10:44:33.663Z,25.60
2018-09-09T10:47:02.545Z,26.20
2018-09-09T10:49:31.313Z,26.90
2018-09-09T10:51:59.962Z,27.30
2018-09-09T10:54:28.614Z,27.20
2018-09-09T10:56:57.390Z,27.10
2018-09-09T10:59:25.959Z,27.60
2018-09-09T11:01:54.926Z,27.30
2018-09-09T11:04:23.806Z,27.00
2018-09-09T11:06:53.805Z,26.90
2018-09-09T11:09:22.572Z,27.00
2018-09-09T11:11:51.325Z,26.60
2018-09-09T11:14:20.314Z,27.00
2018-09-09T11:16:49.241Z,26.60
2018-09-09T11:19:17.970Z,26.50
2018-09-09T11:21:46.851Z,26.60
2018-09-09T11:24:15.827Z,27.30
2018-09-09T11:26:44.596Z,27.30
2018-09-09T11:29:13.527Z,27.40
2018-09-09T11:31:42.589Z,27.40
2018-09-09T11:34:11.453Z,26.50
2018-09-09T11:36:40.662Z,25.50
2018-09-09T11:39:10.247Z,24.80
2018-09-09T11:41:39.530Z,24.70
2018-09-09T11:44:08.465Z,24.30
2018-09-09T11:46:37.325Z,24.50
2018-09-09T11:49:06.147Z,25.00
2018-09-09T11:51:35.100Z,25.10
2018-09-09T11:54:03.874Z,25.30
2018-09-09T11:56:32.765Z,25.50
2018-09-09T11:59:01.582Z,26.30
2018-09-09T12:01:30.268Z,26.50
2018-09-09T12:03:59.410Z,26.80
2018-09-09T12:06:28.163Z,27.10
2018-09-09T12:08:57.031Z,27.50
2018-09-09T12:11:25.881Z,27.90
2018-09-09T12:13:54.589Z,28.00
2018-09-09T12:16:23.369Z,28.90
2018-09-09T12:18:52.010Z,28.60
2018-09-09T12:21:20.800Z,28.40
2018-09-09T12:23:49.610Z,28.60
2018-09-09T12:26:18.441Z,29.00
2018-09-09T12:28:47.483Z,28.90
2018-09-09T12:31:16.605Z,28.90
2018-09-09T12:33:45.524Z,30.20
2018-09-09T12:36:14.293Z,30.50
2018-09-09T12:38:43.376Z,30.60
2018-09-09T12:41:12.078Z,30.60
2018-09-09T12:44:47.156Z,30.90
2018-09-09T12:47:21.382Z,31.80
2018-09-09T12:49:50.153Z,32.90
2018-09-09T12:52:19.276Z,33.50
2018-09-09T12:54:48.338Z,34.80
2018-09-09T12:57:17.444Z,35.30
2018-09-09T12:59:46.171Z,34.20
2018-09-09T13:02:15.324Z,33.40
2018-09-09T13:04:44.108Z,33.20
2018-09-09T13:07:13.077Z,32.50
2018-09-09T13:09:41.678Z,31.60
2018-09-09T13:12:10.611Z,31.70
2018-09-09T13:14:39.366Z,32.60
2018-09-09T13:17:08.192Z,32.50
2018-09-09T13:19:37.056Z,31.80
2018-09-09T13:22:06.026Z,31.20
2018-09-09T13:24:34.715Z,30.80
2018-09-09T13:27:03.490Z,31.70
2018-09-09T13:29:32.410Z,33.00
2018-09-09T13:32:01.362Z,33.10
2018-09-09T13:34:30.268Z,33.00
2018-09-09T13:36:59.261Z,33.10
2018-09-09T13:39:28.042Z,34.10
2018-09-09T13:41:56.700Z,32.70
2018-09-09T13:44:25.875Z,33.80
2018-09-09T13:46:54.846Z,33.60
2018-09-09T13:49:23.565Z,34.50
2018-09-09T13:51:52.530Z,34.10
2018-09-09T13:54:21.495Z,34.30
2018-09-09T13:56:50.326Z,34.40
2018-09-09T13:59:19.245Z,34.30
2018-09-09T14:01:48.028Z,33.60
2018-09-09T14:04:16.707Z,33.40
2018-09-09T14:06:45.272Z,33.80
2018-09-09T14:09:14.261Z,33.80
2018-09-09T14:11:43.123Z,33.50
2018-09-09T14:14:11.791Z,32.20
2018-09-09T14:16:40.831Z,31.60
2018-09-09T14:19:09.599Z,31.20
2018-09-09T14:21:38.326Z,31.40
2018-09-09T14:24:07.343Z,31.50
2018-09-09T14:26:36.427Z,31.90
2018-09-09T14:29:05.234Z,31.90
2018-09-09T14:31:33.935Z,32.30
2018-09-09T14:34:02.641Z,33.60
2018-09-09T14:36:31.640Z,33.90
2018-09-09T14:39:00.825Z,33.40
2018-09-09T14:41:29.892Z,32.30
2018-09-09T14:43:58.740Z,32.70
2018-09-09T14:46:27.403Z,32.10
2018-09-09T14:48:56.242Z,31.50
2018-09-09T14:51:24.907Z,30.30
2018-09-09T14:53:53.837Z,29.30
2018-09-09T14:56:22.547Z,29.10
2018-09-09T14:58:51.898Z,29.50
2018-09-09T15:01:20.881Z,30.50
2018-09-09T15:03:49.689Z,31.00
2018-09-09T15:06:18.940Z,30.80
2018-09-09T15:08:47.891Z,31.20
2018-09-09T15:11:17.024Z,31.20
2018-09-09T15:13:45.847Z,30.70
2018-09-09T15:16:14.981Z,30.10
2018-09-09T15:18:43.896Z,29.60
2018-09-09T15:21:12.556Z,28.30
2018-09-09T15:23:41.939Z,28.20
2018-09-09T15:26:10.878Z,28.00
2018-09-09T15:28:39.515Z,27.80
2018-09-09T15:31:08.744Z,27.30
2018-09-09T15:33:37.547Z,27.10
2018-09-09T15:36:06.458Z,26.70
2018-09-09T15:38:35.091Z,25.90
2018-09-09T15:41:04.078Z,25.50
2018-09-09T15:43:32.836Z,25.10
2018-09-09T15:46:01.710Z,24.80
2018-09-09T15:48:30.594Z,24.40
2018-09-09T15:50:59.399Z,24.30
2018-09-09T15:53:27.998Z,24.30
2018-09-09T15:55:57.014Z,24.10
2018-09-09T15:58:25.830Z,23.80
2018-09-09T16:00:54.700Z,23.70
2018-09-09T16:03:23.408Z,23.70
2018-09-09T16:05:52.288Z,23.30
2018-09-09T16:08:21.002Z,23.20
2018-09-09T16:10:50.107Z,23.10
2018-09-09T16:13:18.698Z,23.00
2018-09-09T16:15:47.300Z,22.90
2018-09-09T16:18:16.323Z,22.90
2018-09-09T16:20:45.242Z,22.70
2018-09-09T16:23:14.144Z,22.60
2018-09-09T16:25:43.151Z,22.60
2018-09-09T16:28:12.138Z,22.40
2018-09-09T16:30:41.333Z,22.50
2018-09-09T16:33:10.095Z,22.40
2018-09-09T16:35:39.275Z,22.20
2018-09-09T16:38:07.983Z,22.30
2018-09-09T16:40:37.022Z,22.20
2018-09-09T16:43:06.500Z,22.20
2018-09-09T16:45:35.328Z,22.30
2018-09-09T16:48:04.463Z,22.30
2018-09-09T16:50:33.596Z,22.30
2018-09-09T16:53:02.610Z,22.40
2018-09-09T16:55:31.668Z,22.50
2018-09-09T16:58:00.675Z,22.50
2018-09-09T17:00:29.390Z,22.50
2018-09-09T17:02:58.529Z,22.60
2018-09-09T17:05:27.325Z,22.60
2018-09-09T17:07:56.202Z,22.50
2018-09-09T17:10:25.213Z,22.60
2018-09-09T17:12:54.632Z,22.60
2018-09-09T17:15:23.254Z,22.40
2018-09-09T17:17:52.315Z,22.40
2018-09-09T17:20:21.416Z,22.50
2018-09-09T17:22:50.552Z,22.50
2018-09-09T17:25:19.560Z,22.50
2018-09-09T17:27:49.467Z,22.40
2018-09-09T17:30:18.515Z,22.30
2018-09-09T17:32:47.793Z,22.30
2018-09-09T17:35:16.644Z,21.80
2018-09-09T17:37:45.946Z,21.50
2018-09-09T17:40:15.114Z,21.00
2018-09-09T17:42:43.926Z,20.80
2018-09-09T17:45:12.997Z,20.70
2018-09-09T17:47:42.311Z,20.50
2018-09-09T17:50:11.438Z,20.20
2018-09-09T17:52:40.382Z,19.90
2018-09-09T17:55:09.317Z,19.40
2018-09-09T17:57:38.643Z,19.20
2018-09-09T18:00:10.787Z,19.00
2018-09-09T18:02:40.020Z,18.80
2018-09-09T18:05:09.340Z,18.50
2018-09-09T18:07:38.476Z,18.40
2018-09-09T18:10:08.031Z,18.10
2018-09-09T18:12:37.332Z,17.90
2018-09-09T18:15:06.642Z,17.80
2018-09-09T18:17:36.194Z,17.70
2018-09-09T18:20:05.020Z,17.30
2018-09-09T18:22:33.912Z,17.20
2018-09-09T18:25:03.222Z,17.00
2018-09-09T18:27:32.334Z,17.00
2018-09-09T18:30:01.373Z,17.00
2018-09-09T18:32:30.374Z,17.00
2018-09-09T18:34:59.511Z,16.90
2018-09-09T18:37:28.764Z,16.70
2018-09-09T18:39:57.745Z,16.40
2018-09-09T18:42:26.747Z,16.30
2018-09-09T18:44:56.340Z,16.40
2018-09-09T18:47:25.566Z,16.20
2018-09-09T18:49:54.693Z,16.10
2018-09-09T18:52:23.632Z,16.10
2018-09-09T18:54:53.071Z,16.00
2018-09-09T18:57:22.299Z,15.90
2018-09-09T18:59:51.576Z,15.90
2018-09-09T19:02:20.718Z,15.90
2018-09-09T19:04:49.659Z,15.90
2018-09-09T19:07:19.304Z,15.90
2018-09-09T19:09:48.671Z,15.80
2018-09-09T19:12:17.803Z,15.80
2018-09-09T19:14:47.166Z,15.70
2018-09-09T19:17:16.671Z,15.70
2018-09-09T19:19:45.896Z,15.60
2018-09-09T19:22:15.042Z,15.40
2018-09-09T19:24:44.350Z,15.20
2018-09-09T19:27:13.421Z,15.20
2018-09-09T19:29:42.858Z,15.00
2018-09-09T19:32:11.941Z,15.00
2018-09-09T19:34:41.076Z,15.00
2018-09-09T19:37:10.130Z,15.00
2018-09-09T19:39:39.413Z,15.00
2018-09-09T19:42:08.316Z,14.90
2018-09-09T19:44:37.458Z,14.90
2018-09-09T19:47:06.245Z,14.90
2018-09-09T19:49:35.287Z,14.70
2018-09-09T19:52:04.266Z,14.60
2018-09-09T19:54:33.228Z,14.50
2018-09-09T19:57:01.958Z,14.30
2018-09-09T19:59:30.902Z,14.30
2018-09-09T20:01:59.968Z,14.20
2018-09-09T20:04:29.002Z,14.10
2018-09-09T20:06:58.150Z,14.10
2018-09-09T20:09:26.968Z,14.00
2018-09-09T20:11:55.917Z,13.90
2018-09-09T20:14:24.962Z,13.90
2018-09-09T20:16:53.781Z,13.90
2018-09-09T20:19:22.800Z,13.80
2018-09-09T20:21:51.511Z,13.80
2018-09-09T20:24:20.214Z,13.80
2018-09-09T20:26:49.311Z,13.80
2018-09-09T20:29:17.994Z,13.80
2018-09-09T20:31:46.962Z,13.70
2018-09-09T20:34:15.743Z,13.60
2018-09-09T20:36:44.339Z,13.40
2018-09-09T20:39:13.490Z,13.40
2018-09-09T20:41:42.318Z,13.40
2018-09-09T20:44:11.208Z,13.30
2018-09-09T20:46:40.227Z,13.10
2018-09-09T20:49:08.957Z,13.10
2018-09-09T20:51:37.671Z,13.10
2018-09-09T20:54:06.490Z,13.00
2018-09-09T20:56:35.487Z,13.00
2018-09-09T20:59:04.290Z,12.90
2018-09-09T21:01:33.068Z,12.80
2018-09-09T21:04:01.785Z,12.80
2018-09-09T21:06:30.610Z,12.70
2018-09-09T21:08:59.867Z,12.60
2018-09-09T21:11:28.445Z,12.40
2018-09-09T21:13:57.073Z,12.30
2018-09-09T21:16:25.903Z,12.40
2018-09-09T21:18:54.837Z,12.30
2018-09-09T21:21:23.589Z,12.30
2018-09-09T21:23:52.661Z,12.30
2018-09-09T21:26:21.451Z,12.30
2018-09-09T21:28:50.788Z,12.20
2018-09-09T21:31:19.503Z,12.30
2018-09-09T21:33:48.197Z,12.20
2018-09-09T21:36:16.923Z,12.10
2018-09-09T21:38:46.001Z,12.10
2018-09-09T21:41:15.015Z,12.10
2018-09-09T21:43:43.901Z,12.10
2018-09-09T21:46:12.477Z,11.90
2018-09-09T21:48:41.370Z,11.80
2018-09-09T21:51:10.286Z,11.70
2018-09-09T21:53:39.389Z,11.60
2018-09-09T21:56:08.062Z,11.50
2018-09-09T21:58:36.902Z,11.70
2018-09-09T22:01:11.624Z,11.50
2018-09-09T22:03:40.352Z,11.40
2018-09-09T22:06:09.159Z,11.40
2018-09-09T22:08:38.036Z,11.40
2018-09-09T22:11:06.915Z,11.50
2018-09-09T22:13:35.765Z,11.50
2018-09-09T22:16:04.356Z,11.40
2018-09-09T22:18:32.969Z,11.30
2018-09-09T22:21:01.737Z,11.30
2018-09-09T22:23:30.472Z,11.30
2018-09-09T22:25:59.058Z,11.20
2018-09-09T22:28:27.753Z,11.20
2018-09-09T22:30:56.409Z,11.10
2018-09-09T22:33:25.200Z,11.20
2018-09-09T22:35:53.781Z,11.10
2018-09-09T22:38:22.645Z,11.00
2018-09-09T22:40:51.268Z,11.10
2018-09-09T22:43:21.068Z,11.00
2018-09-09T22:45:52.217Z,11.10
2018-09-09T22:48:20.989Z,11.10
2018-09-09T22:50:49.581Z,10.90
2018-09-09T22:53:18.109Z,10.80
2018-09-09T22:55:46.925Z,10.60
2018-09-09T22:58:15.565Z,10.70
2018-09-09T23:00:44.412Z,10.80
2018-09-09T23:03:13.207Z,10.80
2018-09-09T23:05:42.054Z,10.70
2018-09-09T23:08:10.811Z,10.70
2018-09-09T23:10:39.379Z,10.60
2018-09-09T23:13:08.230Z,10.60
2018-09-09T23:15:36.907Z,10.60
2018-09-09T23:18:05.929Z,10.60
2018-09-09T23:20:34.733Z,10.60
2018-09-09T23:23:03.429Z,10.60
2018-09-09T23:25:31.986Z,10.60
2018-09-09T23:28:01.079Z,10.60
2018-09-09T23:30:29.682Z,10.50
2018-09-09T23:32:58.632Z,10.40
2018-09-09T23:35:27.201Z,10.50
2018-09-09T23:37:55.937Z,10.40
2018-09-09T23:40:24.859Z,10.30
2018-09-09T23:42:53.582Z,10.20
2018-09-09T23:45:22.563Z,10.20
2018-09-09T23:47:51.204Z,10.20
2018-09-09T23:50:20.098Z,10.10
2018-09-09T23:52:48.797Z,10.20
2018-09-09T23:55:17.699Z,10.30
2018-09-09T23:57:46.469Z,10.30
